sensor_id;sensor_type;location;lat;lon;timestamp;pressure;altitude;pressure_sealevel;temperature;humidity
53715;BME280;39608;55.630;37.864;2024-03-22T00:03:24;99929.28;;;0.51;50.25
53715;BME280;39608;55.630;37.864;2024-03-22T00:08:28;99927.72;;;0.44;51.17
53715;BME280;39608;55.630;37.864;2024-03-22T00:13:30;99915.31;;;0.31;51.19
53715;BME280;39608;55.630;37.864;2024-03-22T00:18:32;99929.22;;;0.33;51.32
53715;BME280;39608;55.630;37.864;2024-03-22T00:23:35;99930.13;;;0.27;50.96
53715;BME280;39608;55.630;37.864;2024-03-22T00:28:37;99918.03;;;0.24;51.45
53715;BME280;39608;55.630;37.864;2024-03-22T00:33:39;99916.59;;;0.22;51.78
53715;BME280;39608;55.630;37.864;2024-03-22T00:38:43;99918.06;;;0.17;51.02
53715;BME280;39608;55.630;37.864;2024-03-22T00:43:45;99917.28;;;0.10;51.49
53715;BME280;39608;55.630;37.864;2024-03-22T00:48:47;99910.97;;;0.05;51.76
53715;BME280;39608;55.630;37.864;2024-03-22T00:53:51;99917.56;;;0.02;52.40
53715;BME280;39608;55.630;37.864;2024-03-22T00:58:53;99914.13;;;-0.05;52.42
53715;BME280;39608;55.630;37.864;2024-03-22T01:03:55;99917.63;;;-0.11;52.43
53715;BME280;39608;55.630;37.864;2024-03-22T01:08:58;99918.50;;;-0.18;52.37
53715;BME280;39608;55.630;37.864;2024-03-22T01:14:00;99904.38;;;-0.25;52.47
53715;BME280;39608;55.630;37.864;2024-03-22T01:19:02;99897.84;;;-0.29;52.85
53715;BME280;39608;55.630;37.864;2024-03-22T01:24:06;99895.63;;;-0.32;53.38
53715;BME280;39608;55.630;37.864;2024-03-22T01:29:08;99893.78;;;-0.38;53.45
53715;BME280;39608;55.630;37.864;2024-03-22T01:34:10;99890.97;;;-0.43;53.71
53715;BME280;39608;55.630;37.864;2024-03-22T01:39:13;99872.56;;;-0.52;53.22
53715;BME280;39608;55.630;37.864;2024-03-22T01:44:16;99875.44;;;-0.53;53.87
53715;BME280;39608;55.630;37.864;2024-03-22T01:49:19;99873.59;;;-0.53;54.10
53715;BME280;39608;55.630;37.864;2024-03-22T01:54:22;99854.75;;;-0.58;54.40
53715;BME280;39608;55.630;37.864;2024-03-22T01:59:25;99858.25;;;-0.57;54.32
53715;BME280;39608;55.630;37.864;2024-03-22T02:04:27;99849.72;;;-0.73;54.33
53715;BME280;39608;55.630;37.864;2024-03-22T02:09:31;99855.91;;;-0.86;55.12
53715;BME280;39608;55.630;37.864;2024-03-22T02:14:33;99863.72;;;-0.91;54.91
53715;BME280;39608;55.630;37.864;2024-03-22T02:19:35;99858.19;;;-0.96;55.42
53715;BME280;39608;55.630;37.864;2024-03-22T02:24:38;99844.03;;;-0.90;55.27
53715;BME280;39608;55.630;37.864;2024-03-22T02:29:40;99844.88;;;-0.89;54.71
53715;BME280;39608;55.630;37.864;2024-03-22T02:34:42;99840.56;;;-0.90;55.17
53715;BME280;39608;55.630;37.864;2024-03-22T02:39:46;99836.47;;;-0.93;54.96
53715;BME280;39608;55.630;37.864;2024-03-22T02:44:48;99832.78;;;-0.92;55.05
53715;BME280;39608;55.630;37.864;2024-03-22T02:49:50;99835.66;;;-0.93;55.72
53715;BME280;39608;55.630;37.864;2024-03-22T02:54:53;99836.91;;;-0.96;56.29
53715;BME280;39608;55.630;37.864;2024-03-22T02:59:55;99832.78;;;-0.92;55.92
53715;BME280;39608;55.630;37.864;2024-03-22T03:04:58;99822.38;;;-1.00;56.21
53715;BME280;39608;55.630;37.864;2024-03-22T03:10:02;99818.50;;;-1.04;56.04
53715;BME280;39608;55.630;37.864;2024-03-22T03:15:05;99825.47;;;-1.10;55.91
53715;BME280;39608;55.630;37.864;2024-03-22T03:20:07;99805.25;;;-1.17;56.29
53715;BME280;39608;55.630;37.864;2024-03-22T03:25:12;99803.00;;;-1.21;56.06
53715;BME280;39608;55.630;37.864;2024-03-22T03:30:14;99807.75;;;-1.29;57.02
53715;BME280;39608;55.630;37.864;2024-03-22T03:35:16;99813.28;;;-1.31;56.33
53715;BME280;39608;55.630;37.864;2024-03-22T03:40:20;99805.28;;;-1.31;57.00
53715;BME280;39608;55.630;37.864;2024-03-22T03:45:22;99790.97;;;-1.30;57.00
53715;BME280;39608;55.630;37.864;2024-03-22T03:50:24;99780.34;;;-1.30;56.85
53715;BME280;39608;55.630;37.864;2024-03-22T03:55:28;99798.09;;;-1.24;56.79
53715;BME280;39608;55.630;37.864;2024-03-22T04:00:30;99781.50;;;-1.19;57.02
53715;BME280;39608;55.630;37.864;2024-03-22T04:05:32;99791.69;;;-1.09;56.35
53715;BME280;39608;55.630;37.864;2024-03-22T04:10:35;99799.81;;;-0.91;56.74
53715;BME280;39608;55.630;37.864;2024-03-22T04:15:37;99797.28;;;-0.79;56.33
53715;BME280;39608;55.630;37.864;2024-03-22T04:20:39;99794.81;;;-0.74;56.37
53715;BME280;39608;55.630;37.864;2024-03-22T04:25:51;99794.13;;;-0.62;55.76
53715;BME280;39608;55.630;37.864;2024-03-22T04:30:55;99778.97;;;-0.62;56.24
53715;BME280;39608;55.630;37.864;2024-03-22T04:35:59;99774.28;;;-0.66;56.77
53715;BME280;39608;55.630;37.864;2024-03-22T04:41:02;99783.69;;;-0.64;56.58
53715;BME280;39608;55.630;37.864;2024-03-22T04:46:04;99785.75;;;-0.66;56.37
53715;BME280;39608;55.630;37.864;2024-03-22T04:51:06;99784.97;;;-0.73;56.35
53715;BME280;39608;55.630;37.864;2024-03-22T04:56:10;99794.19;;;-0.76;56.87
53715;BME280;39608;55.630;37.864;2024-03-22T05:01:12;99792.94;;;-0.66;56.66
53715;BME280;39608;55.630;37.864;2024-03-22T05:06:15;99789.03;;;-0.64;56.66
53715;BME280;39608;55.630;37.864;2024-03-22T05:11:18;99779.56;;;-0.60;57.40
53715;BME280;39608;55.630;37.864;2024-03-22T05:16:21;99783.78;;;-0.45;56.88
53715;BME280;39608;55.630;37.864;2024-03-22T05:21:24;99783.47;;;-0.30;55.88
53715;BME280;39608;55.630;37.864;2024-03-22T05:26:27;99774.78;;;-0.19;56.58
53715;BME280;39608;55.630;37.864;2024-03-22T05:31:45;99771.41;;;-0.08;56.58
53715;BME280;39608;55.630;37.864;2024-03-22T05:36:48;99767.25;;;0.40;56.01
53715;BME280;39608;55.630;37.864;2024-03-22T05:41:52;99771.09;;;2.08;53.78
53715;BME280;39608;55.630;37.864;2024-03-22T05:46:54;99763.47;;;4.53;48.85
53715;BME280;39608;55.630;37.864;2024-03-22T05:51:57;99751.22;;;6.31;45.12
53715;BME280;39608;55.630;37.864;2024-03-22T05:57:00;99745.66;;;7.58;42.57
53715;BME280;39608;55.630;37.864;2024-03-22T06:02:02;99753.41;;;8.52;40.18
53715;BME280;39608;55.630;37.864;2024-03-22T06:07:05;99738.63;;;7.21;41.15
53715;BME280;39608;55.630;37.864;2024-03-22T06:12:08;99734.09;;;4.68;44.97
53715;BME280;39608;55.630;37.864;2024-03-22T06:17:11;99746.94;;;3.37;47.34
53715;BME280;39608;55.630;37.864;2024-03-22T06:22:13;99730.91;;;2.67;48.71
53715;BME280;39608;55.630;37.864;2024-03-22T06:27:16;99725.63;;;2.32;48.80
53715;BME280;39608;55.630;37.864;2024-03-22T06:32:18;99732.38;;;2.11;49.67
53715;BME280;39608;55.630;37.864;2024-03-22T06:37:20;99722.88;;;2.03;49.97
53715;BME280;39608;55.630;37.864;2024-03-22T06:42:24;99716.13;;;2.00;50.19
53715;BME280;39608;55.630;37.864;2024-03-22T06:47:27;99722.63;;;2.04;50.45
53715;BME280;39608;55.630;37.864;2024-03-22T06:52:29;99712.03;;;2.10;50.72
53715;BME280;39608;55.630;37.864;2024-03-22T06:57:32;99722.72;;;2.21;50.60
53715;BME280;39608;55.630;37.864;2024-03-22T07:02:35;99720.97;;;2.27;50.47
53715;BME280;39608;55.630;37.864;2024-03-22T07:07:37;99718.94;;;2.46;50.63
53715;BME280;39608;55.630;37.864;2024-03-22T07:12:41;99720.22;;;2.55;50.64
53715;BME280;39608;55.630;37.864;2024-03-22T07:17:43;99705.50;;;2.70;50.61
53715;BME280;39608;55.630;37.864;2024-03-22T07:22:45;99703.69;;;2.87;49.80
53715;BME280;39608;55.630;37.864;2024-03-22T07:27:49;99701.75;;;2.83;50.69
53715;BME280;39608;55.630;37.864;2024-03-22T07:32:51;99700.78;;;2.89;50.48
53715;BME280;39608;55.630;37.864;2024-03-22T07:37:53;99696.84;;;3.08;50.26
53715;BME280;39608;55.630;37.864;2024-03-22T07:42:56;99684.72;;;3.35;49.74
53715;BME280;39608;55.630;37.864;2024-03-22T07:48:00;99681.13;;;3.63;48.49
53715;BME280;39608;55.630;37.864;2024-03-22T07:53:02;99681.22;;;3.68;49.14
53715;BME280;39608;55.630;37.864;2024-03-22T07:58:06;99686.19;;;3.76;48.48
53715;BME280;39608;55.630;37.864;2024-03-22T08:03:14;99656.88;;;3.92;48.34
53715;BME280;39608;55.630;37.864;2024-03-22T08:08:17;99659.47;;;4.48;47.86
53715;BME280;39608;55.630;37.864;2024-03-22T08:13:20;99651.75;;;10.72;38.40
53715;BME280;39608;55.630;37.864;2024-03-22T08:18:22;99628.81;;;15.29;30.33
53715;BME280;39608;55.630;37.864;2024-03-22T08:23:24;99625.56;;;18.16;26.11
53715;BME280;39608;55.630;37.864;2024-03-22T08:28:28;99629.00;;;20.23;23.50
53715;BME280;39608;55.630;37.864;2024-03-22T08:33:30;99621.09;;;20.73;21.69
53715;BME280;39608;55.630;37.864;2024-03-22T08:38:32;99609.16;;;22.70;19.98
53715;BME280;39608;55.630;37.864;2024-03-22T08:43:36;99600.47;;;23.33;18.71
53715;BME280;39608;55.630;37.864;2024-03-22T08:48:38;99580.41;;;23.09;18.05
53715;BME280;39608;55.630;37.864;2024-03-22T08:53:40;99584.50;;;23.19;17.30
53715;BME280;39608;55.630;37.864;2024-03-22T08:58:44;99583.03;;;23.29;17.03
53715;BME280;39608;55.630;37.864;2024-03-22T09:03:46;99571.97;;;24.99;15.98
53715;BME280;39608;55.630;37.864;2024-03-22T09:08:50;99566.47;;;25.28;15.30
53715;BME280;39608;55.630;37.864;2024-03-22T09:13:53;99562.59;;;25.72;15.05
53715;BME280;39608;55.630;37.864;2024-03-22T09:18:55;99553.38;;;26.37;13.75
53715;BME280;39608;55.630;37.864;2024-03-22T09:23:58;99547.00;;;26.47;13.29
53715;BME280;39608;55.630;37.864;2024-03-22T09:29:01;99557.03;;;26.19;13.95
53715;BME280;39608;55.630;37.864;2024-03-22T09:34:04;99542.16;;;26.69;13.15
53715;BME280;39608;55.630;37.864;2024-03-22T09:39:06;99541.53;;;27.18;12.22
53715;BME280;39608;55.630;37.864;2024-03-22T09:44:12;99540.16;;;27.47;12.56
53715;BME280;39608;55.630;37.864;2024-03-22T09:49:15;99531.56;;;27.20;12.37
53715;BME280;39608;55.630;37.864;2024-03-22T09:54:17;99531.22;;;27.11;12.14
53715;BME280;39608;55.630;37.864;2024-03-22T09:59:21;99537.31;;;26.91;11.95
53715;BME280;39608;55.630;37.864;2024-03-22T10:04:24;99526.81;;;26.25;12.39
53715;BME280;39608;55.630;37.864;2024-03-22T10:09:29;99528.63;;;27.91;12.04
53715;BME280;39608;55.630;37.864;2024-03-22T10:14:33;99522.81;;;28.20;11.49
53715;BME280;39608;55.630;37.864;2024-03-22T10:19:36;99520.06;;;27.14;12.22
53715;BME280;39608;55.630;37.864;2024-03-22T10:24:38;99504.22;;;27.04;12.15
53715;BME280;39608;55.630;37.864;2024-03-22T10:29:42;99500.66;;;28.74;11.45
53715;BME280;39608;55.630;37.864;2024-03-22T10:34:44;99496.81;;;30.74;10.21
53715;BME280;39608;55.630;37.864;2024-03-22T10:39:49;99488.22;;;30.04;10.62
53715;BME280;39608;55.630;37.864;2024-03-22T10:44:53;99485.78;;;30.83;10.44
53715;BME280;39608;55.630;37.864;2024-03-22T10:49:59;99466.91;;;30.87;10.01
53715;BME280;39608;55.630;37.864;2024-03-22T10:55:08;99456.09;;;29.93;10.23
53715;BME280;39608;55.630;37.864;2024-03-22T11:00:15;99458.56;;;28.58;10.84
53715;BME280;39608;55.630;37.864;2024-03-22T11:05:18;99455.56;;;28.10;10.95
53715;BME280;39608;55.630;37.864;2024-03-22T11:10:26;99448.06;;;27.65;11.55
53715;BME280;39608;55.630;37.864;2024-03-22T11:15:32;99433.28;;;27.27;11.82
53715;BME280;39608;55.630;37.864;2024-03-22T11:20:36;99426.94;;;27.23;11.88
53715;BME280;39608;55.630;37.864;2024-03-22T11:25:38;99421.41;;;27.15;12.13
53715;BME280;39608;55.630;37.864;2024-03-22T11:30:42;99416.97;;;27.25;12.19
53715;BME280;39608;55.630;37.864;2024-03-22T11:35:44;99414.19;;;26.69;12.54
53715;BME280;39608;55.630;37.864;2024-03-22T11:40:47;99393.66;;;26.41;12.21
53715;BME280;39608;55.630;37.864;2024-03-22T11:45:51;99393.06;;;25.98;12.71
53715;BME280;39608;55.630;37.864;2024-03-22T11:50:53;99385.59;;;25.80;13.13
53715;BME280;39608;55.630;37.864;2024-03-22T11:55:57;99381.44;;;26.24;12.85
53715;BME280;39608;55.630;37.864;2024-03-22T12:01:01;99366.22;;;25.55;13.26
53715;BME280;39608;55.630;37.864;2024-03-22T12:06:05;99347.13;;;24.31;13.54
53715;BME280;39608;55.630;37.864;2024-03-22T12:11:10;99338.38;;;24.11;13.84
53715;BME280;39608;55.630;37.864;2024-03-22T12:16:14;99338.00;;;24.30;14.23
53715;BME280;39608;55.630;37.864;2024-03-22T12:21:16;99317.09;;;25.05;13.94
53715;BME280;39608;55.630;37.864;2024-03-22T12:26:18;99302.06;;;24.70;13.88
53715;BME280;39608;55.630;37.864;2024-03-22T12:31:22;99301.59;;;24.28;14.30
53715;BME280;39608;55.630;37.864;2024-03-22T12:36:24;99277.78;;;23.98;14.41
53715;BME280;39608;55.630;37.864;2024-03-22T12:41:27;99273.91;;;24.60;13.92
53715;BME280;39608;55.630;37.864;2024-03-22T12:46:32;99260.66;;;23.74;14.38
53715;BME280;39608;55.630;37.864;2024-03-22T12:51:35;99248.66;;;22.75;14.94
53715;BME280;39608;55.630;37.864;2024-03-22T12:56:37;99242.41;;;22.89;14.86
53715;BME280;39608;55.630;37.864;2024-03-22T13:01:41;99242.22;;;23.19;14.46
53715;BME280;39608;55.630;37.864;2024-03-22T13:06:44;99232.16;;;22.37;15.09
53715;BME280;39608;55.630;37.864;2024-03-22T13:11:46;99228.28;;;22.49;15.30
53715;BME280;39608;55.630;37.864;2024-03-22T13:16:50;99223.34;;;22.73;15.12
53715;BME280;39608;55.630;37.864;2024-03-22T13:21:53;99219.22;;;22.52;15.18
53715;BME280;39608;55.630;37.864;2024-03-22T13:26:55;99205.06;;;21.41;16.29
53715;BME280;39608;55.630;37.864;2024-03-22T13:31:58;99197.88;;;20.26;17.29
53715;BME280;39608;55.630;37.864;2024-03-22T13:37:01;99190.19;;;19.30;18.64
53715;BME280;39608;55.630;37.864;2024-03-22T13:42:03;99190.22;;;18.11;19.76
53715;BME280;39608;55.630;37.864;2024-03-22T13:47:06;99189.88;;;16.13;21.79
53715;BME280;39608;55.630;37.864;2024-03-22T13:52:08;99184.66;;;15.40;22.81
53715;BME280;39608;55.630;37.864;2024-03-22T13:57:11;99178.88;;;14.40;24.04
53715;BME280;39608;55.630;37.864;2024-03-22T14:02:15;99181.25;;;13.56;25.20
53715;BME280;39608;55.630;37.864;2024-03-22T14:07:17;99157.97;;;13.23;25.95
53715;BME280;39608;55.630;37.864;2024-03-22T14:12:19;99148.53;;;12.19;27.36
53715;BME280;39608;55.630;37.864;2024-03-22T14:17:23;99142.03;;;11.66;28.12
53715;BME280;39608;55.630;37.864;2024-03-22T14:22:25;99131.59;;;11.05;28.86
53715;BME280;39608;55.630;37.864;2024-03-22T14:27:27;99134.81;;;10.57;29.74
53715;BME280;39608;55.630;37.864;2024-03-22T14:32:30;99135.53;;;10.35;29.65
53715;BME280;39608;55.630;37.864;2024-03-22T14:37:32;99127.09;;;10.08;30.54
53715;BME280;39608;55.630;37.864;2024-03-22T14:42:34;99121.84;;;9.84;31.21
53715;BME280;39608;55.630;37.864;2024-03-22T14:47:38;99117.50;;;9.55;32.18
53715;BME280;39608;55.630;37.864;2024-03-22T14:52:40;99113.91;;;9.27;32.57
53715;BME280;39608;55.630;37.864;2024-03-22T14:57:42;99109.78;;;8.97;33.73
53715;BME280;39608;55.630;37.864;2024-03-22T15:02:45;99105.50;;;8.77;33.69
53715;BME280;39608;55.630;37.864;2024-03-22T15:07:48;99105.03;;;8.50;33.87
53715;BME280;39608;55.630;37.864;2024-03-22T15:12:50;99098.28;;;8.29;34.48
53715;BME280;39608;55.630;37.864;2024-03-22T15:17:54;99098.53;;;8.08;34.93
53715;BME280;39608;55.630;37.864;2024-03-22T15:22:59;99097.72;;;7.83;35.35
53715;BME280;39608;55.630;37.864;2024-03-22T15:28:01;99093.66;;;7.57;36.54
53715;BME280;39608;55.630;37.864;2024-03-22T15:33:05;99091.19;;;7.36;36.98
53715;BME280;39608;55.630;37.864;2024-03-22T15:38:07;99098.13;;;7.13;37.72
53715;BME280;39608;55.630;37.864;2024-03-22T15:43:09;99098.34;;;6.82;38.61
53715;BME280;39608;55.630;37.864;2024-03-22T15:48:13;99089.31;;;6.62;39.33
53715;BME280;39608;55.630;37.864;2024-03-22T15:53:20;99092.59;;;6.49;39.42
53715;BME280;39608;55.630;37.864;2024-03-22T15:58:22;99082.47;;;6.30;39.89
53715;BME280;39608;55.630;37.864;2024-03-22T16:03:26;99086.31;;;6.14;40.36
53715;BME280;39608;55.630;37.864;2024-03-22T16:08:28;99089.88;;;5.94;41.45
53715;BME280;39608;55.630;37.864;2024-03-22T16:13:31;99079.41;;;5.82;41.83
53715;BME280;39608;55.630;37.864;2024-03-22T16:18:34;99082.66;;;5.74;42.21
53715;BME280;39608;55.630;37.864;2024-03-22T16:23:37;99079.75;;;5.60;41.81
53715;BME280;39608;55.630;37.864;2024-03-22T16:28:39;99081.63;;;5.54;42.41
53715;BME280;39608;55.630;37.864;2024-03-22T16:33:42;99074.41;;;5.44;43.31
53715;BME280;39608;55.630;37.864;2024-03-22T16:38:44;99068.22;;;5.39;42.96
53715;BME280;39608;55.630;37.864;2024-03-22T16:43:46;99072.78;;;5.38;43.00
53715;BME280;39608;55.630;37.864;2024-03-22T16:48:50;99064.47;;;5.29;43.29
53715;BME280;39608;55.630;37.864;2024-03-22T16:53:52;99065.28;;;5.20;43.94
53715;BME280;39608;55.630;37.864;2024-03-22T16:58:54;99072.56;;;5.04;44.61
53715;BME280;39608;55.630;37.864;2024-03-22T17:03:57;99074.16;;;4.84;45.59
53715;BME280;39608;55.630;37.864;2024-03-22T17:09:00;99076.00;;;4.68;45.03
53715;BME280;39608;55.630;37.864;2024-03-22T17:14:02;99066.84;;;4.54;44.98
53715;BME280;39608;55.630;37.864;2024-03-22T17:19:06;99063.34;;;4.43;46.01
53715;BME280;39608;55.630;37.864;2024-03-22T17:24:10;99064.13;;;4.38;46.28
53715;BME280;39608;55.630;37.864;2024-03-22T17:29:12;99064.38;;;4.32;46.38
53715;BME280;39608;55.630;37.864;2024-03-22T17:34:15;99061.69;;;4.26;46.43
53715;BME280;39608;55.630;37.864;2024-03-22T17:39:17;99062.47;;;4.22;47.21
53715;BME280;39608;55.630;37.864;2024-03-22T17:44:19;99064.06;;;4.18;47.02
53715;BME280;39608;55.630;37.864;2024-03-22T17:49:23;99049.31;;;4.10;46.96
53715;BME280;39608;55.630;37.864;2024-03-22T17:54:25;99052.50;;;4.02;47.91
53715;BME280;39608;55.630;37.864;2024-03-22T17:59:27;99044.38;;;3.91;48.35
53715;BME280;39608;55.630;37.864;2024-03-22T18:04:30;99024.50;;;3.82;48.33
53715;BME280;39608;55.630;37.864;2024-03-22T18:09:32;99024.19;;;3.73;49.15
53715;BME280;39608;55.630;37.864;2024-03-22T18:14:34;99031.41;;;3.68;49.07
53715;BME280;39608;55.630;37.864;2024-03-22T18:19:38;99026.31;;;3.61;49.20
53715;BME280;39608;55.630;37.864;2024-03-22T18:24:40;99020.06;;;3.50;50.42
53715;BME280;39608;55.630;37.864;2024-03-22T18:29:42;99012.81;;;3.46;50.44
53715;BME280;39608;55.630;37.864;2024-03-22T18:34:45;99014.16;;;3.43;50.54
53715;BME280;39608;55.630;37.864;2024-03-22T18:39:48;99015.16;;;3.37;50.55
53715;BME280;39608;55.630;37.864;2024-03-22T18:44:50;99006.59;;;3.35;50.37
53715;BME280;39608;55.630;37.864;2024-03-22T18:49:53;98996.63;;;3.30;50.36
53715;BME280;39608;55.630;37.864;2024-03-22T18:54:56;98982.41;;;3.24;50.70
53715;BME280;39608;55.630;37.864;2024-03-22T18:59:59;98992.53;;;3.17;50.99
53715;BME280;39608;55.630;37.864;2024-03-22T19:05:02;98986.34;;;3.12;51.34
53715;BME280;39608;55.630;37.864;2024-03-22T19:10:05;98986.28;;;3.01;51.57
53715;BME280;39608;55.630;37.864;2024-03-22T19:15:09;98983.03;;;2.99;52.32
53715;BME280;39608;55.630;37.864;2024-03-22T19:20:12;98978.22;;;2.96;52.25
53715;BME280;39608;55.630;37.864;2024-03-22T19:25:14;98974.94;;;2.89;52.50
53715;BME280;39608;55.630;37.864;2024-03-22T19:30:17;98973.00;;;2.79;53.14
53715;BME280;39608;55.630;37.864;2024-03-22T19:35:23;98964.66;;;2.76;53.57
53715;BME280;39608;55.630;37.864;2024-03-22T19:40:25;98966.50;;;2.70;54.22
53715;BME280;39608;55.630;37.864;2024-03-22T19:45:27;98965.38;;;2.61;54.78
53715;BME280;39608;55.630;37.864;2024-03-22T19:50:33;98961.34;;;2.58;54.54
53715;BME280;39608;55.630;37.864;2024-03-22T19:55:35;98953.72;;;2.45;55.46
53715;BME280;39608;55.630;37.864;2024-03-22T20:00:37;98942.44;;;2.37;55.85
53715;BME280;39608;55.630;37.864;2024-03-22T20:05:41;98946.09;;;2.26;56.59
53715;BME280;39608;55.630;37.864;2024-03-22T20:10:43;98935.84;;;2.18;57.18
53715;BME280;39608;55.630;37.864;2024-03-22T20:15:45;98934.19;;;2.12;57.37
53715;BME280;39608;55.630;37.864;2024-03-22T20:20:49;98933.34;;;2.06;57.92
53715;BME280;39608;55.630;37.864;2024-03-22T20:25:54;98914.03;;;1.99;58.40
53715;BME280;39608;55.630;37.864;2024-03-22T20:30:56;98901.69;;;1.98;58.58
